createdAt,value
2019-02-16T00:02:02.411Z,-0.47
2019-02-16T00:04:32.703Z,-0.56
2019-02-16T00:07:02.944Z,-0.63
2019-02-16T00:09:33.307Z,-0.66
2019-02-16T00:12:03.869Z,-0.66
2019-02-16T00:14:34.145Z,-0.65
2019-02-16T00:17:04.408Z,-0.70
2019-02-16T00:19:35.062Z,-0.66
2019-02-16T00:22:05.316Z,-0.65
2019-02-16T00:24:36.465Z,-0.96
2019-02-16T00:27:06.717Z,-1.25
2019-02-16T00:29:37.179Z,-1.51
2019-02-16T00:32:07.429Z,-1.59
2019-02-16T00:34:37.886Z,-1.59
2019-02-16T00:37:08.141Z,-1.58
2019-02-16T00:39:39.297Z,-1.67
2019-02-16T00:42:09.834Z,-1.70
2019-02-16T00:44:40.115Z,-1.68
2019-02-16T00:47:10.369Z,-1.65
2019-02-16T00:49:40.656Z,-1.63
2019-02-16T00:52:10.912Z,-1.61
2019-02-16T00:54:42.079Z,-1.50
2019-02-16T00:57:12.341Z,-1.54
2019-02-16T00:59:42.611Z,-1.51
2019-02-16T01:02:12.868Z,-1.52
2019-02-16T01:04:43.146Z,-1.47
2019-02-16T01:07:13.412Z,-1.52
2019-02-16T01:09:43.682Z,-1.56
2019-02-16T01:12:13.950Z,-1.46
2019-02-16T01:14:44.227Z,-1.48
2019-02-16T01:17:14.480Z,-1.64
2019-02-16T01:19:44.761Z,-1.76
2019-02-16T01:22:15.031Z,-1.57
2019-02-16T01:24:45.318Z,-1.57
2019-02-16T01:27:15.569Z,-1.60
2019-02-16T01:29:45.850Z,-1.62
2019-02-16T01:32:16.117Z,-1.73
2019-02-16T01:34:46.385Z,-1.80
2019-02-16T01:37:16.635Z,-1.71
2019-02-16T01:39:47.060Z,-1.68
2019-02-16T01:42:17.311Z,-1.63
2019-02-16T01:44:47.565Z,-1.61
2019-02-16T01:47:17.829Z,-1.63
2019-02-16T01:49:48.076Z,-1.65
2019-02-16T01:52:18.336Z,-1.64
2019-02-16T01:54:48.581Z,-1.57
2019-02-16T01:57:18.843Z,-1.54
2019-02-16T01:59:49.092Z,-1.42
2019-02-16T02:02:19.368Z,-1.51
2019-02-16T02:04:49.621Z,-1.42
2019-02-16T02:07:19.889Z,-1.48
2019-02-16T02:09:50.137Z,-1.55
2019-02-16T02:12:20.482Z,-1.58
2019-02-16T02:14:52.355Z,-1.55
2019-02-16T02:17:22.623Z,-1.63
2019-02-16T02:19:52.875Z,-1.68
2019-02-16T02:22:23.149Z,-1.71
2019-02-16T02:24:53.398Z,-1.62
2019-02-16T02:27:23.666Z,-1.48
2019-02-16T02:29:53.919Z,-1.53
2019-02-16T02:32:24.188Z,-1.63
2019-02-16T02:34:54.433Z,-1.71
2019-02-16T02:37:24.707Z,-1.72
2019-02-16T02:39:56.069Z,-1.63
2019-02-16T02:42:26.338Z,-1.52
2019-02-16T02:44:56.598Z,-1.50
2019-02-16T02:47:26.857Z,-1.58
2019-02-16T02:49:57.111Z,-1.48
2019-02-16T02:52:27.377Z,-1.46
2019-02-16T02:54:57.631Z,-1.45
2019-02-16T02:57:27.919Z,-1.49
2019-02-16T02:59:58.164Z,-1.43
2019-02-16T03:02:28.432Z,-1.50
2019-02-16T03:04:58.687Z,-1.58
2019-02-16T03:07:28.961Z,-1.55
2019-02-16T03:09:59.215Z,-1.52
2019-02-16T03:12:29.486Z,-1.45
2019-02-16T03:14:59.734Z,-1.37
2019-02-16T03:17:30.011Z,-1.31
2019-02-16T03:20:00.346Z,-1.35
2019-02-16T03:23:07.053Z,-1.44
2019-02-16T03:25:37.375Z,-1.40
2019-02-16T03:28:26.153Z,-1.41
2019-02-16T03:31:31.398Z,-1.43
2019-02-16T03:34:21.137Z,-1.46
2019-02-16T03:37:13.951Z,-1.45
2019-02-16T03:39:45.580Z,-1.48
2019-02-16T03:42:15.809Z,-1.52
2019-02-16T03:44:46.077Z,-1.57
2019-02-16T03:47:16.333Z,-1.51
2019-02-16T03:49:46.602Z,-1.58
2019-02-16T03:52:16.874Z,-1.63
2019-02-16T03:54:47.138Z,-1.66
2019-02-16T03:57:17.391Z,-1.64
2019-02-16T03:59:47.662Z,-1.71
2019-02-16T04:02:17.921Z,-1.79
2019-02-16T04:04:48.192Z,-1.76
2019-02-16T04:07:18.448Z,-1.78
2019-02-16T04:09:48.729Z,-1.69
2019-02-16T04:12:18.969Z,-1.55
2019-02-16T04:14:49.237Z,-1.40
2019-02-16T04:17:19.490Z,-1.40
2019-02-16T04:19:49.767Z,-1.47
2019-02-16T04:22:24.634Z,-1.52
2019-02-16T04:24:52.061Z,-1.56
2019-02-16T04:27:22.311Z,-1.57
2019-02-16T04:29:52.581Z,-1.51
2019-02-16T04:32:22.835Z,-1.60
2019-02-16T04:34:53.107Z,-1.56
2019-02-16T04:37:23.632Z,-1.65
2019-02-16T04:39:53.904Z,-1.74
2019-02-16T04:42:24.157Z,-1.79
2019-02-16T04:44:54.593Z,-1.76
2019-02-16T04:47:24.844Z,-1.77
2019-02-16T04:49:55.115Z,-1.81
2019-02-16T04:52:34.318Z,-1.83
2019-02-16T04:54:57.510Z,-1.79
2019-02-16T04:57:27.761Z,-1.90
2019-02-16T04:59:58.025Z,-1.84
2019-02-16T05:02:28.282Z,-1.85
2019-02-16T05:04:58.615Z,-1.87
2019-02-16T05:07:28.867Z,-1.88
2019-02-16T05:09:59.142Z,-1.84
2019-02-16T05:12:29.863Z,-1.84
2019-02-16T05:15:00.302Z,-1.89
2019-02-16T05:17:30.567Z,-1.95
2019-02-16T05:20:00.839Z,-1.97
2019-02-16T05:22:31.357Z,-1.99
2019-02-16T05:25:01.627Z,-2.05
2019-02-16T05:27:33.115Z,-2.12
2019-02-16T05:30:03.949Z,-2.14
2019-02-16T05:32:34.372Z,-2.19
2019-02-16T05:35:05.594Z,-2.27
2019-02-16T05:37:35.839Z,-2.22
2019-02-16T05:40:08.519Z,-2.28
2019-02-16T05:42:38.919Z,-2.26
2019-02-16T05:45:09.661Z,-2.20
2019-02-16T05:47:39.912Z,-2.21
2019-02-16T05:50:10.179Z,-2.20
2019-02-16T05:52:42.546Z,-2.15
2019-02-16T05:55:12.805Z,-2.14
2019-02-16T05:57:43.061Z,-2.22
2019-02-16T06:00:14.298Z,-2.29
2019-02-16T06:02:44.721Z,-2.36
2019-02-16T06:05:14.997Z,-2.30
2019-02-16T06:07:45.246Z,-2.35
2019-02-16T06:10:15.519Z,-2.36
2019-02-16T06:12:46.235Z,-2.45
2019-02-16T06:15:16.780Z,-2.53
2019-02-16T06:17:47.147Z,-2.61
2019-02-16T06:20:17.484Z,-2.56
2019-02-16T06:22:47.738Z,-2.53
2019-02-16T06:25:18.012Z,-2.50
2019-02-16T06:27:48.275Z,-2.11
2019-02-16T06:30:18.537Z,-1.62
2019-02-16T06:32:48.794Z,-1.23
2019-02-16T06:35:35.654Z,-0.79
2019-02-16T06:38:05.905Z,0.31
2019-02-16T06:40:36.170Z,1.80
2019-02-16T06:43:06.417Z,2.70
2019-02-16T06:45:36.692Z,3.44
2019-02-16T06:48:06.942Z,4.17
2019-02-16T06:50:37.397Z,5.03
2019-02-16T06:53:13.258Z,5.65
2019-02-16T06:55:41.434Z,6.25
2019-02-16T06:58:11.688Z,6.79
2019-02-16T07:00:41.944Z,7.25
2019-02-16T07:03:12.207Z,7.38
2019-02-16T07:05:42.458Z,7.74
2019-02-16T07:08:12.731Z,8.07
2019-02-16T07:10:42.986Z,8.63
2019-02-16T07:13:13.376Z,8.88
2019-02-16T07:15:45.304Z,9.31
2019-02-16T07:18:25.937Z,9.46
2019-02-16T07:20:56.318Z,9.65
2019-02-16T07:23:26.568Z,10.00
2019-02-16T07:25:56.832Z,10.40
2019-02-16T07:28:27.102Z,10.68
2019-02-16T07:30:57.358Z,10.77
2019-02-16T07:33:28.702Z,11.05
2019-02-16T07:35:58.977Z,11.44
2019-02-16T07:38:29.247Z,11.58
2019-02-16T07:40:59.660Z,11.93
2019-02-16T07:43:37.294Z,12.30
2019-02-16T07:46:11.872Z,12.63
2019-02-16T07:48:49.745Z,12.92
2019-02-16T07:51:27.353Z,13.17
2019-02-16T07:54:05.125Z,13.14
2019-02-16T07:56:37.041Z,13.10
2019-02-16T07:59:14.675Z,13.35
2019-02-16T08:01:56.735Z,13.34
2019-02-16T08:04:26.923Z,13.70
2019-02-16T08:06:58.826Z,13.81
2019-02-16T08:09:36.680Z,13.47
2019-02-16T08:12:08.956Z,13.63
2019-02-16T08:14:40.865Z,13.98
2019-02-16T08:17:24.821Z,13.84
2019-02-16T08:20:13.730Z,14.28
2019-02-16T08:22:45.689Z,14.20
2019-02-16T08:25:33.498Z,14.41
2019-02-16T08:28:17.334Z,14.65
2019-02-16T08:31:04.226Z,14.60
2019-02-16T08:33:50.884Z,14.82
2019-02-16T08:36:28.505Z,14.59
2019-02-16T08:39:09.168Z,14.61
2019-02-16T08:41:41.110Z,14.60
2019-02-16T08:44:18.807Z,14.68
2019-02-16T08:46:54.578Z,14.09
2019-02-16T08:49:35.572Z,14.34
2019-02-16T08:52:23.521Z,14.23
2019-02-16T08:54:58.343Z,14.73
2019-02-16T08:57:36.181Z,14.67
2019-02-16T09:00:25.662Z,13.98
2019-02-16T09:02:57.581Z,11.94
2019-02-16T09:05:29.481Z,10.38
2019-02-16T09:08:05.363Z,9.91
2019-02-16T09:10:37.990Z,9.34
2019-02-16T09:13:15.720Z,8.67
2019-02-16T09:15:47.608Z,8.39
2019-02-16T09:18:19.689Z,8.20
2019-02-16T09:20:51.600Z,8.10
2019-02-16T09:23:23.490Z,8.21
2019-02-16T09:26:09.103Z,8.31
2019-02-16T09:28:43.705Z,8.44
2019-02-16T09:31:24.455Z,8.22
2019-02-16T09:33:56.613Z,7.95
2019-02-16T09:36:28.520Z,8.29
2019-02-16T09:39:03.147Z,8.59
2019-02-16T09:41:38.061Z,8.26
2019-02-16T09:44:10.136Z,8.37
2019-02-16T09:46:42.058Z,8.38
2019-02-16T09:49:16.693Z,8.42
2019-02-16T09:52:06.948Z,8.39
2019-02-16T09:54:39.032Z,8.50
2019-02-16T09:57:10.943Z,8.60
2019-02-16T09:59:58.317Z,8.68
2019-02-16T10:02:30.258Z,8.81
2019-02-16T10:05:02.150Z,8.94
2019-02-16T10:07:51.456Z,9.20
2019-02-16T10:10:35.319Z,9.42
2019-02-16T10:13:16.189Z,9.48
2019-02-16T10:15:59.888Z,9.65
2019-02-16T10:18:48.233Z,9.80
2019-02-16T10:21:20.153Z,9.98
2019-02-16T10:24:17.586Z,10.00
2019-02-16T10:26:46.563Z,9.96
2019-02-16T10:29:18.477Z,10.06
2019-02-16T10:31:50.874Z,10.26
2019-02-16T10:34:45.639Z,10.33
2019-02-16T10:37:20.756Z,10.42
2019-02-16T10:40:10.526Z,10.43
2019-02-16T10:42:51.700Z,10.52
2019-02-16T10:45:41.676Z,10.65
2019-02-16T10:48:22.528Z,10.82
2019-02-16T10:50:57.296Z,10.79
2019-02-16T10:53:31.877Z,10.99
2019-02-16T10:56:03.802Z,11.12
2019-02-16T10:58:35.714Z,11.26
2019-02-16T11:01:07.642Z,11.38
2019-02-16T11:03:51.405Z,11.41
2019-02-16T11:06:29.022Z,11.53
2019-02-16T11:09:02.139Z,11.57
2019-02-16T11:11:35.644Z,11.74
2019-02-16T11:14:07.631Z,11.79
2019-02-16T11:16:48.397Z,11.98
2019-02-16T11:19:20.290Z,12.17
2019-02-16T11:22:10.124Z,12.14
2019-02-16T11:24:48.204Z,12.14
2019-02-16T11:27:29.408Z,12.24
2019-02-16T11:30:15.633Z,12.43
2019-02-16T11:32:56.624Z,12.59
2019-02-16T11:35:34.513Z,12.65
2019-02-16T11:38:22.395Z,12.73
2019-02-16T11:41:08.723Z,12.74
2019-02-16T11:43:41.101Z,12.79
2019-02-16T11:46:14.790Z,12.80
2019-02-16T11:48:49.405Z,12.94
2019-02-16T11:51:24.329Z,13.00
2019-02-16T11:53:59.394Z,13.13
2019-02-16T11:56:40.150Z,13.04
2019-02-16T11:59:23.800Z,13.02
2019-02-16T12:01:55.706Z,13.12
2019-02-16T12:04:31.817Z,13.15
2019-02-16T12:07:19.862Z,13.26
2019-02-16T12:09:51.754Z,13.23
2019-02-16T12:12:23.658Z,13.35
2019-02-16T12:14:55.547Z,13.51
2019-02-16T12:17:33.432Z,13.55
2019-02-16T12:20:11.794Z,13.56
2019-02-16T12:22:46.625Z,13.60
2019-02-16T12:25:18.526Z,13.76
2019-02-16T12:27:50.437Z,13.77
2019-02-16T12:30:28.207Z,13.76
2019-02-16T12:33:00.131Z,13.86
2019-02-16T12:35:50.260Z,13.88
2019-02-16T12:38:22.174Z,13.91
2019-02-16T12:40:56.981Z,14.00
2019-02-16T12:43:28.896Z,14.04
2019-02-16T12:46:15.802Z,14.12
2019-02-16T12:48:56.860Z,14.09
2019-02-16T12:51:34.637Z,14.18
2019-02-16T12:54:06.546Z,14.20
2019-02-16T12:56:53.682Z,14.30
2019-02-16T12:59:28.541Z,14.31
2019-02-16T13:02:00.437Z,14.20
2019-02-16T13:04:35.317Z,14.24
2019-02-16T13:07:07.238Z,14.22
2019-02-16T13:09:42.101Z,14.26
2019-02-16T13:12:16.689Z,14.28
2019-02-16T13:14:51.527Z,14.30
2019-02-16T13:17:39.705Z,14.32
2019-02-16T13:20:14.335Z,14.30
2019-02-16T13:22:52.205Z,14.29
2019-02-16T13:25:36.097Z,14.32
2019-02-16T13:28:14.090Z,14.32
2019-02-16T13:31:01.267Z,14.29
2019-02-16T13:33:35.849Z,14.38
2019-02-16T13:36:21.214Z,14.35
2019-02-16T13:39:00.122Z,14.31
2019-02-16T13:41:34.602Z,14.28
2019-02-16T13:44:09.444Z,14.22
2019-02-16T13:46:42.379Z,14.24
2019-02-16T13:49:20.119Z,14.14
2019-02-16T13:51:58.127Z,14.12
2019-02-16T13:54:36.147Z,14.11
2019-02-16T13:57:09.151Z,14.16
2019-02-16T13:59:44.195Z,14.10
2019-02-16T14:02:16.114Z,14.01
2019-02-16T14:04:48.016Z,13.98
2019-02-16T14:07:26.945Z,14.04
2019-02-16T14:09:58.843Z,14.05
2019-02-16T14:12:48.681Z,13.98
2019-02-16T14:15:23.736Z,13.95
2019-02-16T14:17:54.024Z,14.00
2019-02-16T14:20:24.285Z,14.03
2019-02-16T14:22:54.631Z,13.94
2019-02-16T14:25:26.528Z,13.88
2019-02-16T14:27:56.817Z,13.85
2019-02-16T14:30:27.076Z,13.75
2019-02-16T14:32:57.358Z,13.73
2019-02-16T14:35:30.611Z,13.71
2019-02-16T14:38:02.536Z,13.67
2019-02-16T14:40:32.950Z,13.60
2019-02-16T14:43:03.222Z,13.62
2019-02-16T14:45:35.127Z,13.58
2019-02-16T14:48:06.266Z,13.54
2019-02-16T14:50:36.523Z,13.47
2019-02-16T14:53:06.806Z,13.40
2019-02-16T14:55:37.065Z,13.37
2019-02-16T14:58:07.377Z,13.34
2019-02-16T15:00:38.593Z,13.23
2019-02-16T15:03:08.889Z,13.19
2019-02-16T15:05:39.156Z,13.15
2019-02-16T15:08:09.587Z,13.05
2019-02-16T15:10:39.937Z,12.92
2019-02-16T15:13:10.220Z,12.90
2019-02-16T15:15:43.536Z,12.81
2019-02-16T15:18:13.881Z,12.73
2019-02-16T15:20:44.846Z,12.64
2019-02-16T15:23:15.240Z,12.60
2019-02-16T15:25:47.601Z,12.50
2019-02-16T15:28:17.900Z,12.39
2019-02-16T15:30:48.328Z,12.32
2019-02-16T15:33:18.634Z,12.26
2019-02-16T15:35:49.072Z,12.20
2019-02-16T15:38:23.068Z,12.07
2019-02-16T15:40:53.514Z,11.96
2019-02-16T15:43:24.787Z,11.80
2019-02-16T15:45:55.049Z,11.65
2019-02-16T15:48:26.333Z,11.52
2019-02-16T15:50:56.641Z,11.37
2019-02-16T15:53:26.917Z,11.24
2019-02-16T15:55:57.196Z,11.04
2019-02-16T15:58:27.603Z,10.87
2019-02-16T16:00:57.970Z,10.72
2019-02-16T16:03:28.287Z,10.58
2019-02-16T16:05:59.738Z,10.41
2019-02-16T16:08:35.547Z,10.28
2019-02-16T16:11:07.479Z,10.18
2019-02-16T16:13:52.833Z,9.99
2019-02-16T16:16:34.893Z,9.84
2019-02-16T16:19:13.903Z,9.63
2019-02-16T16:21:58.616Z,9.46
2019-02-16T16:24:46.796Z,9.29
2019-02-16T16:27:26.746Z,9.12
2019-02-16T16:30:03.646Z,8.95
2019-02-16T16:32:37.625Z,8.79
2019-02-16T16:35:12.813Z,8.63
2019-02-16T16:37:44.735Z,8.46
2019-02-16T16:40:35.266Z,8.20
2019-02-16T16:43:13.085Z,8.11
2019-02-16T16:45:45.046Z,8.02
2019-02-16T16:48:16.972Z,7.90
2019-02-16T16:50:54.786Z,7.78
2019-02-16T16:53:32.728Z,7.67
2019-02-16T16:56:08.710Z,7.53
2019-02-16T16:58:40.746Z,7.41
2019-02-16T17:01:12.707Z,7.22
2019-02-16T17:03:54.126Z,7.08
2019-02-16T17:06:28.170Z,6.93
2019-02-16T17:09:01.283Z,6.79
2019-02-16T17:11:52.904Z,6.70
2019-02-16T17:14:33.884Z,6.57
2019-02-16T17:17:18.315Z,6.43
2019-02-16T17:20:07.190Z,6.31
2019-02-16T17:22:51.232Z,6.23
2019-02-16T17:25:26.487Z,6.22
2019-02-16T17:27:58.435Z,6.11
2019-02-16T17:30:36.048Z,6.02
2019-02-16T17:33:10.678Z,5.94
2019-02-16T17:35:42.664Z,5.82
2019-02-16T17:38:26.119Z,5.77
2019-02-16T17:41:04.946Z,5.72
2019-02-16T17:43:37.244Z,5.60
2019-02-16T17:46:18.141Z,5.51
2019-02-16T17:48:54.164Z,5.47
2019-02-16T17:51:42.606Z,5.41
2019-02-16T17:54:17.410Z,5.34
2019-02-16T17:57:05.438Z,5.27
2019-02-16T17:59:40.091Z,5.25
2019-02-16T18:02:29.512Z,5.14
2019-02-16T18:05:10.621Z,5.00
2019-02-16T18:07:45.439Z,4.87
2019-02-16T18:10:26.336Z,4.84
2019-02-16T18:12:58.321Z,4.79
2019-02-16T18:15:30.281Z,4.75
2019-02-16T18:18:02.217Z,4.74
2019-02-16T18:20:35.754Z,4.71
2019-02-16T18:23:07.678Z,4.63
2019-02-16T18:25:39.752Z,4.55
2019-02-16T18:28:13.773Z,4.50
2019-02-16T18:30:56.170Z,4.48
2019-02-16T18:33:33.854Z,4.48
2019-02-16T18:36:15.426Z,4.35
2019-02-16T18:38:48.717Z,4.38
2019-02-16T18:41:26.323Z,4.37
2019-02-16T18:44:04.273Z,4.37
2019-02-16T18:46:36.180Z,4.35
2019-02-16T18:49:10.962Z,4.37
2019-02-16T18:51:42.862Z,4.37
2019-02-16T18:54:14.868Z,4.29
2019-02-16T18:57:06.956Z,4.35
2019-02-16T18:59:47.383Z,4.46
2019-02-16T19:02:19.297Z,4.44
2019-02-16T19:05:09.229Z,4.46
2019-02-16T19:07:44.915Z,4.47
2019-02-16T19:10:19.537Z,4.44
2019-02-16T19:13:07.455Z,4.45
2019-02-16T19:15:48.408Z,4.40
2019-02-16T19:18:23.092Z,4.31
2019-02-16T19:21:06.961Z,4.32
2019-02-16T19:23:52.873Z,4.28
2019-02-16T19:26:33.700Z,4.23
2019-02-16T19:29:05.604Z,4.18
2019-02-16T19:31:44.674Z,4.12
2019-02-16T19:34:34.580Z,4.03
2019-02-16T19:37:18.219Z,4.06
2019-02-16T19:39:50.158Z,4.05
2019-02-16T19:42:22.406Z,4.03
2019-02-16T19:44:56.388Z,4.03
2019-02-16T19:47:38.415Z,3.98
2019-02-16T19:50:13.590Z,3.93
2019-02-16T19:52:57.508Z,3.94
2019-02-16T19:55:44.388Z,3.99
2019-02-16T19:58:21.321Z,4.03
2019-02-16T20:00:53.243Z,4.05
2019-02-16T20:03:25.427Z,4.10
2019-02-16T20:06:13.911Z,4.12
2019-02-16T20:08:54.955Z,4.10
2019-02-16T20:11:45.386Z,4.02
2019-02-16T20:14:26.375Z,3.93
2019-02-16T20:17:02.458Z,3.80
2019-02-16T20:19:40.841Z,3.71
2019-02-16T20:22:13.891Z,3.67
2019-02-16T20:24:51.479Z,3.51
2019-02-16T20:27:42.354Z,3.42
2019-02-16T20:30:23.955Z,3.35
2019-02-16T20:33:00.503Z,3.28
2019-02-16T20:35:48.702Z,3.20
2019-02-16T20:38:35.236Z,3.15
2019-02-16T20:41:25.271Z,3.07
2019-02-16T20:43:59.881Z,2.99
2019-02-16T20:46:34.617Z,2.94
2019-02-16T20:49:27.214Z,2.88
2019-02-16T20:52:18.342Z,2.83
2019-02-16T20:54:53.443Z,2.80
2019-02-16T20:57:47.381Z,2.75
2019-02-16T21:00:24.839Z,2.73
2019-02-16T21:03:03.870Z,2.66
2019-02-16T21:05:57.035Z,2.62
2019-02-16T21:08:40.461Z,2.58
2019-02-16T21:11:29.111Z,2.57
2019-02-16T21:14:05.480Z,2.59
2019-02-16T21:16:51.297Z,2.66
2019-02-16T21:19:32.436Z,2.63
2019-02-16T21:22:23.532Z,2.62
2019-02-16T21:24:58.083Z,2.69
2019-02-16T21:27:32.179Z,2.68
2019-02-16T21:30:19.245Z,2.66
2019-02-16T21:32:56.734Z,2.64
2019-02-16T21:35:38.709Z,2.62
2019-02-16T21:38:16.339Z,2.65
2019-02-16T21:41:02.937Z,2.64
2019-02-16T21:43:40.595Z,2.69
2019-02-16T21:46:27.848Z,2.74
2019-02-16T21:49:06.135Z,2.70
2019-02-16T21:51:41.388Z,2.68
2019-02-16T21:54:30.168Z,2.58
2019-02-16T21:57:02.302Z,2.61
2019-02-16T21:59:43.496Z,2.59
2019-02-16T22:02:32.778Z,2.58
2019-02-16T22:05:21.100Z,2.58
2019-02-16T22:08:09.105Z,2.55
2019-02-16T22:10:54.610Z,2.55
2019-02-16T22:13:28.319Z,2.56
2019-02-16T22:15:58.594Z,2.58
2019-02-16T22:18:28.847Z,2.52
2019-02-16T22:20:59.122Z,2.48
2019-02-16T22:23:30.547Z,2.49
2019-02-16T22:26:00.826Z,2.46
2019-02-16T22:28:31.363Z,2.43
2019-02-16T22:31:01.750Z,2.42
2019-02-16T22:33:32.032Z,2.38
2019-02-16T22:36:02.316Z,2.37
2019-02-16T22:38:32.579Z,2.26
2019-02-16T22:41:04.539Z,2.26
2019-02-16T22:43:36.421Z,2.29
2019-02-16T22:46:08.468Z,2.15
2019-02-16T22:48:39.751Z,2.13
2019-02-16T22:51:10.015Z,2.12
2019-02-16T22:53:40.340Z,2.08
2019-02-16T22:56:10.628Z,2.07
2019-02-16T22:58:40.904Z,2.09
2019-02-16T23:01:11.256Z,2.11
2019-02-16T23:03:43.132Z,2.10
2019-02-16T23:06:14.975Z,2.12
2019-02-16T23:08:45.252Z,2.11
2019-02-16T23:11:15.551Z,2.08
2019-02-16T23:13:45.824Z,2.08
2019-02-16T23:16:16.261Z,2.12
2019-02-16T23:18:46.537Z,2.10
2019-02-16T23:21:16.824Z,2.09
2019-02-16T23:23:47.097Z,2.10
2019-02-16T23:26:17.374Z,2.04
2019-02-16T23:28:47.643Z,2.03
2019-02-16T23:31:17.998Z,1.91
2019-02-16T23:33:49.910Z,1.69
2019-02-16T23:36:20.188Z,1.69
2019-02-16T23:38:50.439Z,1.60
2019-02-16T23:41:20.730Z,1.48
2019-02-16T23:43:50.992Z,1.25
2019-02-16T23:46:21.265Z,1.25
2019-02-16T23:48:51.523Z,1.24
2019-02-16T23:51:21.803Z,1.14
2019-02-16T23:53:52.043Z,1.06
2019-02-16T23:56:22.334Z,0.87
2019-02-16T23:58:52.760Z,0.87
